Time;durP1;ratioP1;P1;durP2;ratioP2;P2;SDS_P1;SDS_P2;PMS_P1;PMS_P2;Temp;Humidity;BMP_temperature;BMP_pressure;BME280_temperature;BME280_humidity;BME280_pressure;Samples;Min_cycle;Max_cycle;Signal;HPM_P1;HPM_P2
2022/09/21 00:00:05;;;;;;;1.63;1.25;;;11.10;99.90;;;;;;5052057;28;20183;-69
2022/09/21 00:02:31;;;;;;;1.58;1.42;;;11.10;99.90;;;;;;5053152;28;20183;-68
2022/09/21 00:04:56;;;;;;;1.60;1.50;;;11.00;99.90;;;;;;5052848;28;20186;-68
2022/09/21 00:07:22;;;;;;;1.33;1.13;;;11.20;99.90;;;;;;5053299;28;20182;-69
2022/09/21 00:09:48;;;;;;;1.20;0.98;;;11.10;99.90;;;;;;5051999;28;20199;-69
2022/09/21 00:12:14;;;;;;;1.48;1.15;;;11.20;99.90;;;;;;5051948;28;20633;-70
2022/09/21 00:14:41;;;;;;;1.40;1.10;;;11.10;99.90;;;;;;5052893;28;20194;-69
2022/09/21 00:17:08;;;;;;;1.23;1.08;;;11.10;99.90;;;;;;5051795;28;20250;-68
2022/09/21 00:19:34;;;;;;;1.38;1.10;;;11.10;99.90;;;;;;5053251;28;20181;-69
2022/09/21 00:22:00;;;;;;;0.93;0.85;;;11.00;99.90;;;;;;5052822;28;20178;-69
2022/09/21 00:24:26;;;;;;;1.00;0.80;;;11.00;99.90;;;;;;5052952;28;20175;-69
2022/09/21 00:26:52;;;;;;;1.60;1.00;;;11.00;99.90;;;;;;5052875;28;20183;-68
2022/09/21 00:29:18;;;;;;;1.20;1.10;;;11.00;99.90;;;;;;5052634;28;20237;-68
2022/09/21 00:31:44;;;;;;;1.88;1.25;;;10.90;99.90;;;;;;5052767;28;20266;-69
2022/09/21 00:34:10;;;;;;;0.80;0.80;;;10.90;99.90;;;;;;5051521;28;20175;-68
2022/09/21 00:36:35;;;;;;;0.88;0.88;;;10.90;99.90;;;;;;5053046;28;20175;-68
2022/09/21 00:39:02;;;;;;;1.30;1.20;;;11.00;99.90;;;;;;5051729;28;20175;-69
2022/09/21 00:41:30;;;;;;;0.90;0.90;;;11.00;99.90;;;;;;5052910;28;20175;-69
2022/09/21 00:44:17;;;;;;;1.38;1.05;;;10.90;99.90;;;;;;5056699;28;20621;-68
2022/09/21 00:46:45;;;;;;;0.85;0.85;;;10.80;99.90;;;;;;5056678;28;20216;-68
2022/09/21 00:49:12;;;;;;;1.52;1.10;;;10.80;99.90;;;;;;5056412;28;20688;-68
2022/09/21 00:51:38;;;;;;;1.63;1.20;;;10.90;99.90;;;;;;5055352;28;20535;-69
2022/09/21 00:54:11;;;;;;;1.58;1.25;;;10.90;99.90;;;;;;5055695;28;20168;-68
2022/09/21 00:56:38;;;;;;;1.50;1.40;;;11.00;99.90;;;;;;5056505;28;20394;-68
2022/09/21 00:59:05;;;;;;;1.40;1.20;;;11.00;99.90;;;;;;5055012;28;20647;-69
2022/09/21 01:01:31;;;;;;;1.17;1.08;;;10.90;99.90;;;;;;5055068;28;20182;-68
2022/09/21 01:03:57;;;;;;;1.23;1.13;;;10.80;99.90;;;;;;5056192;28;20179;-68
2022/09/21 01:06:23;;;;;;;1.60;1.13;;;10.80;99.90;;;;;;5056224;28;20206;-69
2022/09/21 01:08:57;;;;;;;1.40;1.30;;;10.90;99.90;;;;;;5054878;28;20632;-69
2022/09/21 01:11:48;;;;;;;1.70;1.40;;;10.90;99.90;;;;;;5055670;28;20188;-68
2022/09/21 01:14:32;;;;;;;1.33;0.90;;;10.90;99.90;;;;;;5056281;28;20197;-68
2022/09/21 01:17:14;;;;;;;1.42;1.27;;;10.90;99.90;;;;;;5055217;28;20528;-69
2022/09/21 01:20:17;;;;;;;1.50;1.05;;;10.80;99.90;;;;;;5054834;28;20175;-68
2022/09/21 01:23:20;;;;;;;1.13;0.90;;;10.90;99.90;;;;;;5055883;28;20182;-70
2022/09/21 01:26:20;;;;;;;2.90;1.10;;;10.80;99.90;;;;;;5043459;28;20206;-69
2022/09/21 01:29:20;;;;;;;1.00;0.90;;;10.80;99.90;;;;;;5043331;28;20210;-68
2022/09/21 01:31:50;;;;;;;0.80;0.80;;;10.80;99.90;;;;;;5055812;28;20171;-68
2022/09/21 01:34:32;;;;;;;0.85;0.85;;;10.70;99.90;;;;;;5055593;28;20211;-68
2022/09/21 01:37:05;;;;;;;1.23;1.13;;;10.60;99.90;;;;;;5055800;28;20171;-69
2022/09/21 01:39:33;;;;;;;0.90;0.90;;;10.60;99.90;;;;;;5055709;28;20213;-68
2022/09/21 01:42:05;;;;;;;1.10;1.00;;;10.60;99.90;;;;;;5054428;28;20536;-68
2022/09/21 01:44:34;;;;;;;1.42;1.10;;;10.60;99.90;;;;;;5055843;28;20263;-68
2022/09/21 01:47:02;;;;;;;1.25;1.15;;;10.60;99.90;;;;;;5055236;28;20265;-68
2022/09/21 01:49:45;;;;;;;0.98;0.80;;;10.70;99.90;;;;;;5055460;28;20249;-69
2022/09/21 01:52:32;;;;;;;1.10;1.00;;;10.70;99.90;;;;;;5055907;28;20178;-68
2022/09/21 01:55:03;;;;;;;1.52;1.00;;;10.60;99.90;;;;;;5054083;28;20178;-68
2022/09/21 01:57:51;;;;;;;1.80;1.08;;;10.60;99.90;;;;;;5055184;28;20173;-68
2022/09/21 02:00:17;;;;;;;1.23;1.10;;;10.50;99.90;;;;;;5055228;28;20175;-68
2022/09/21 02:03:08;;;;;;;1.90;1.10;;;10.60;99.90;;;;;;5055290;28;20180;-68
2022/09/21 02:05:35;;;;;;;1.38;0.95;;;10.60;99.90;;;;;;5055071;28;20285;-68
2022/09/21 02:08:01;;;;;;;1.15;0.98;;;10.50;99.90;;;;;;5055177;28;20290;-68
2022/09/21 02:10:46;;;;;;;1.13;0.98;;;10.60;99.90;;;;;;5055344;28;20540;-68
2022/09/21 02:13:13;;;;;;;2.05;0.93;;;10.60;99.90;;;;;;5055024;28;20175;-68
2022/09/21 02:15:51;;;;;;;0.65;0.65;;;10.60;99.90;;;;;;5054736;28;20230;-68
2022/09/21 02:18:28;;;;;;;0.80;0.80;;;10.60;99.90;;;;;;5054794;28;20189;-68
2022/09/21 02:20:57;;;;;;;0.65;0.65;;;10.50;99.90;;;;;;5054845;28;20179;-67
2022/09/21 02:23:46;;;;;;;0.82;0.82;;;10.50;99.90;;;;;;5054793;28;20237;-68
2022/09/21 02:26:19;;;;;;;0.82;0.82;;;10.60;99.90;;;;;;5053580;28;20520;-68
2022/09/21 02:29:02;;;;;;;0.80;0.80;;;10.60;99.90;;;;;;5054551;28;20199;-69
2022/09/21 02:31:40;;;;;;;0.82;0.82;;;10.60;99.90;;;;;;5053476;28;20190;-68
2022/09/21 02:34:19;;;;;;;1.20;1.10;;;10.60;99.90;;;;;;5054589;28;20172;-67
2022/09/21 02:36:57;;;;;;;1.00;0.90;;;10.60;99.90;;;;;;5054453;28;20178;-68
2022/09/21 02:39:41;;;;;;;0.85;0.85;;;10.60;99.90;;;;;;5054650;28;20171;-68
2022/09/21 02:42:19;;;;;;;0.98;0.80;;;10.50;99.90;;;;;;5054426;28;20175;-67
2022/09/21 02:44:58;;;;;;;1.52;1.15;;;10.60;99.90;;;;;;5054291;28;20179;-68
2022/09/21 02:47:33;;;;;;;1.30;0.98;;;10.60;99.90;;;;;;5052978;28;20193;-68
2022/09/21 02:50:08;;;;;;;0.98;0.90;;;10.60;99.90;;;;;;5054336;28;20199;-68
2022/09/21 02:52:35;;;;;;;1.00;0.88;;;10.60;99.90;;;;;;5052956;28;20232;-68
2022/09/21 02:55:03;;;;;;;0.80;0.80;;;10.60;99.90;;;;;;5054151;28;20660;-68
2022/09/21 02:57:29;;;;;;;1.42;0.90;;;10.60;99.90;;;;;;5054056;28;20175;-68
2022/09/21 02:59:55;;;;;;;0.85;0.85;;;10.60;99.90;;;;;;5053889;28;20552;-68
2022/09/21 03:02:21;;;;;;;1.60;0.95;;;10.50;99.90;;;;;;5053016;28;20171;-68
2022/09/21 03:04:48;;;;;;;1.30;1.20;;;10.50;99.90;;;;;;5053541;28;20179;-68
2022/09/21 03:07:15;;;;;;;1.00;0.90;;;10.50;99.90;;;;;;5052741;28;20532;-68
2022/09/21 03:09:41;;;;;;;0.77;0.77;;;10.40;99.90;;;;;;5053746;28;20632;-68
2022/09/21 03:12:07;;;;;;;1.52;0.80;;;10.30;99.90;;;;;;5053751;28;20210;-67
2022/09/21 03:14:33;;;;;;;1.90;1.00;;;10.20;99.90;;;;;;5053406;28;20564;-67
2022/09/21 03:16:59;;;;;;;1.77;1.20;;;10.20;99.90;;;;;;5052773;28;20175;-68
2022/09/21 03:19:26;;;;;;;1.25;1.00;;;10.20;99.90;;;;;;5053801;28;20652;-68
2022/09/21 03:21:53;;;;;;;1.45;1.20;;;10.20;99.90;;;;;;5052376;28;20633;-68
2022/09/21 03:24:44;;;;;;;1.10;1.00;;;10.20;99.90;;;;;;5053545;28;20175;-67
2022/09/21 03:27:07;;;;;;;1.15;1.05;;;10.10;99.90;;;;;;5053578;28;20671;-68
2022/09/21 03:29:32;;;;;;;1.10;1.00;;;10.20;99.90;;;;;;5053487;28;20326;-68
2022/09/21 03:31:58;;;;;;;3.13;1.15;;;10.30;99.90;;;;;;5053643;28;20586;-67
2022/09/21 03:34:24;;;;;;;0.80;0.80;;;10.20;99.90;;;;;;5053590;28;20579;-68
2022/09/21 03:36:50;;;;;;;1.30;1.20;;;10.00;99.90;;;;;;5052546;28;20184;-68
2022/09/21 03:39:15;;;;;;;1.73;0.80;;;10.00;99.90;;;;;;5052091;28;20179;-67
2022/09/21 03:41:41;;;;;;;0.75;0.75;;;9.90;99.90;;;;;;5053511;28;20174;-68
2022/09/21 03:44:07;;;;;;;1.58;1.00;;;10.10;99.90;;;;;;5052194;28;20529;-67
2022/09/21 03:46:34;;;;;;;1.15;1.05;;;10.10;99.90;;;;;;5053360;28;20544;-67
2022/09/21 03:49:01;;;;;;;1.20;1.08;;;9.90;99.90;;;;;;5053209;28;20195;-68
2022/09/21 03:51:28;;;;;;;0.80;0.80;;;10.00;99.90;;;;;;5053155;28;20190;-68
2022/09/21 03:53:54;;;;;;;0.70;0.70;;;10.10;99.90;;;;;;5051695;28;20171;-67
2022/09/21 03:56:20;;;;;;;1.30;1.17;;;10.10;99.90;;;;;;5052057;28;20274;-67
2022/09/21 03:58:46;;;;;;;0.90;0.90;;;10.10;99.90;;;;;;5053228;28;20265;-67
2022/09/21 04:01:11;;;;;;;1.35;0.98;;;10.00;99.90;;;;;;5052977;28;20175;-67
2022/09/21 04:03:37;;;;;;;0.63;0.63;;;9.90;99.90;;;;;;5051656;28;20203;-67
2022/09/21 04:06:08;;;;;;;0.70;0.70;;;9.90;99.90;;;;;;5052204;28;20706;-68
2022/09/21 04:08:34;;;;;;;1.17;0.93;;;10.00;99.90;;;;;;5050472;28;20565;-67
2022/09/21 04:11:01;;;;;;;0.77;0.77;;;10.00;99.90;;;;;;5049423;28;20172;-67
2022/09/21 04:13:27;;;;;;;1.33;1.23;;;10.00;99.90;;;;;;5050396;28;20206;-66
2022/09/21 04:15:52;;;;;;;1.60;1.08;;;10.00;99.90;;;;;;5033824;28;20195;-67
2022/09/21 04:18:19;;;;;;;1.10;1.00;;;9.90;99.90;;;;;;5055703;28;20174;-66
2022/09/21 04:20:44;;;;;;;1.40;0.98;;;9.80;99.90;;;;;;5056728;28;20633;-66
2022/09/21 04:23:10;;;;;;;1.30;1.17;;;9.70;99.90;;;;;;5055571;28;20175;-66
2022/09/21 04:25:36;;;;;;;1.50;1.02;;;9.80;99.90;;;;;;5056321;28;20210;-66
2022/09/21 04:28:02;;;;;;;1.23;0.88;;;9.90;99.90;;;;;;5056722;28;20234;-67
2022/09/21 04:30:28;;;;;;;1.23;1.10;;;10.00;99.90;;;;;;5054760;28;20272;-65
2022/09/21 04:32:53;;;;;;;1.20;1.02;;;10.00;99.90;;;;;;5053578;28;20533;-65
2022/09/21 04:35:19;;;;;;;1.58;1.17;;;10.10;99.90;;;;;;5056883;28;20241;-66
2022/09/21 04:37:45;;;;;;;1.45;1.30;;;10.00;99.90;;;;;;5055407;28;20261;-66
2022/09/21 04:40:11;;;;;;;1.80;1.20;;;10.00;99.90;;;;;;5056840;28;20680;-66
2022/09/21 04:42:36;;;;;;;2.50;2.00;;;9.90;99.90;;;;;;5056894;28;20203;-66
2022/09/21 04:45:04;;;;;;;1.15;1.05;;;9.90;99.90;;;;;;5056449;28;20179;-66
2022/09/21 04:47:30;;;;;;;1.25;1.10;;;9.90;99.90;;;;;;5056462;28;20602;-63
2022/09/21 04:49:56;;;;;;;1.17;1.08;;;10.00;99.90;;;;;;5056463;28;20241;-66
2022/09/21 04:52:21;;;;;;;1.65;1.25;;;10.00;99.90;;;;;;5056381;28;20179;-66
2022/09/21 04:54:47;;;;;;;1.50;1.40;;;10.10;99.90;;;;;;5056267;28;20176;-66
2022/09/21 04:57:13;;;;;;;1.38;1.02;;;9.80;99.90;;;;;;5056347;28;20803;-66
2022/09/21 04:59:39;;;;;;;2.30;1.27;;;9.80;99.90;;;;;;5055266;28;20202;-63
2022/09/21 05:02:05;;;;;;;1.23;1.00;;;9.80;99.90;;;;;;5054227;28;20632;-62
2022/09/21 05:04:31;;;;;;;1.30;1.20;;;9.90;99.90;;;;;;5054607;28;20171;-63
2022/09/21 05:06:58;;;;;;;1.75;1.10;;;9.90;99.90;;;;;;5056029;28;20175;-63
2022/09/21 05:12:22;;;;;;;2.58;1.63;;;10.00;99.90;;;;;;5054626;28;20668;-63
2022/09/21 05:14:48;;;;;;;2.03;1.50;;;10.10;99.90;;;;;;5056006;28;20229;-63
2022/09/21 05:17:13;;;;;;;1.42;1.05;;;10.00;99.90;;;;;;5055932;28;20309;-63
2022/09/21 05:19:39;;;;;;;1.80;1.08;;;10.00;99.90;;;;;;5054738;28;20251;-63
2022/09/21 05:22:05;;;;;;;1.33;1.23;;;10.10;99.90;;;;;;5056078;28;20175;-63
2022/09/21 05:24:31;;;;;;;1.58;1.38;;;10.10;99.90;;;;;;5056016;28;20176;-63
2022/09/21 05:26:56;;;;;;;1.10;1.00;;;10.10;99.90;;;;;;5055770;28;20203;-63
2022/09/21 05:29:22;;;;;;;1.20;1.02;;;10.10;99.90;;;;;;5055398;28;20215;-63
2022/09/21 05:31:55;;;;;;;2.95;1.52;;;10.10;99.90;;;;;;5055589;28;20589;-63
2022/09/21 05:34:36;;;;;;;1.52;1.13;;;10.00;99.90;;;;;;5055837;28;20254;-63
2022/09/21 05:37:35;;;;;;;1.05;0.95;;;9.70;99.90;;;;;;5055725;28;20167;-63
2022/09/21 05:40:01;;;;;;;1.85;1.27;;;9.70;99.90;;;;;;5055642;28;20168;-63
2022/09/21 05:42:27;;;;;;;1.60;1.13;;;9.80;99.90;;;;;;5055364;28;20175;-63
2022/09/21 05:44:54;;;;;;;1.30;1.20;;;9.90;99.90;;;;;;5055475;28;20550;-63
2022/09/21 05:47:39;;;;;;;1.17;1.02;;;9.90;99.90;;;;;;5055350;28;20185;-63
2022/09/21 05:50:17;;;;;;;1.35;1.25;;;10.00;99.90;;;;;;5055324;28;20207;-63
2022/09/21 05:52:48;;;;;;;1.30;1.00;;;10.00;99.90;;;;;;5055207;28;20182;-63
2022/09/21 05:55:25;;;;;;;1.30;1.10;;;10.10;99.90;;;;;;5055338;28;20179;-63
2022/09/21 05:58:26;;;;;;;2.22;1.50;;;10.00;99.90;;;;;;5055225;28;20171;-63
2022/09/21 06:00:57;;;;;;;1.17;1.08;;;10.10;99.90;;;;;;5032786;28;20191;-63
2022/09/21 06:03:28;;;;;;;1.60;1.30;;;10.10;99.90;;;;;;5051469;28;20194;-63
2022/09/21 06:05:55;;;;;;;1.08;0.90;;;10.10;99.90;;;;;;5055189;28;20297;-63
2022/09/21 06:08:21;;;;;;;1.63;1.40;;;10.10;99.90;;;;;;5054992;28;20182;-63
2022/09/21 06:10:47;;;;;;;1.83;1.23;;;10.20;99.90;;;;;;5053758;28;20183;-63
2022/09/21 06:13:13;;;;;;;1.08;1.00;;;10.30;99.90;;;;;;5054991;28;20260;-63
2022/09/21 06:15:39;;;;;;;2.50;1.45;;;10.30;99.90;;;;;;5054702;28;20275;-63
2022/09/21 06:18:06;;;;;;;1.98;1.23;;;10.30;99.90;;;;;;5054982;28;20588;-63
2022/09/21 06:20:32;;;;;;;2.03;1.25;;;10.40;99.90;;;;;;5054912;28;20202;-63
2022/09/21 06:23:08;;;;;;;1.38;1.10;;;10.40;99.90;;;;;;5054816;28;20206;-63
2022/09/21 06:25:34;;;;;;;1.58;1.30;;;10.50;99.90;;;;;;5053444;28;20202;-63
2022/09/21 06:28:04;;;;;;;3.40;1.58;;;10.50;99.90;;;;;;5053370;28;20179;-63
2022/09/21 06:30:32;;;;;;;1.33;1.10;;;10.50;99.90;;;;;;5054665;28;20203;-62
2022/09/21 06:32:59;;;;;;;1.52;1.30;;;10.60;99.90;;;;;;5054741;28;20267;-63
2022/09/21 06:35:25;;;;;;;1.33;1.13;;;10.70;99.90;;;;;;5054504;28;20181;-63
2022/09/21 06:37:51;;;;;;;1.30;1.20;;;10.80;99.90;;;;;;5054410;28;20191;-63
2022/09/21 06:40:17;;;;;;;1.75;1.42;;;10.80;99.90;;;;;;5052522;28;20218;-63
2022/09/21 06:42:42;;;;;;;1.80;1.70;;;10.90;99.90;;;;;;5054213;28;20175;-63
2022/09/21 06:45:08;;;;;;;1.70;1.25;;;11.00;99.90;;;;;;5053153;28;20179;-63
2022/09/21 06:47:34;;;;;;;1.42;1.30;;;11.10;99.90;;;;;;5053005;28;20172;-63
2022/09/21 06:50:00;;;;;;;2.60;1.50;;;11.20;99.90;;;;;;5054121;28;20213;-63
2022/09/21 06:52:25;;;;;;;2.20;1.55;;;11.30;99.90;;;;;;5054014;28;20183;-63
2022/09/21 06:54:51;;;;;;;1.58;1.20;;;11.40;99.90;;;;;;5053987;28;20179;-65
2022/09/21 06:57:17;;;;;;;1.67;1.40;;;11.50;99.90;;;;;;5053912;28;20175;-63
2022/09/21 06:59:42;;;;;;;1.88;1.50;;;11.50;99.90;;;;;;5052932;28;20179;-62
2022/09/21 07:02:08;;;;;;;2.72;2.03;;;11.70;99.90;;;;;;5052728;28;20179;-63
2022/09/21 07:04:34;;;;;;;2.45;1.80;;;11.80;99.90;;;;;;5052540;28;20179;-63
2022/09/21 07:07:00;;;;;;;1.70;1.20;;;11.90;99.90;;;;;;5052687;28;20190;-64
2022/09/21 07:09:25;;;;;;;1.85;1.38;;;12.10;99.90;;;;;;5053703;28;20534;-63
2022/09/21 07:11:51;;;;;;;1.60;1.30;;;12.30;99.90;;;;;;5052608;28;20175;-63
2022/09/21 07:14:17;;;;;;;1.95;1.50;;;12.40;99.90;;;;;;5053602;28;20195;-63
2022/09/21 07:16:43;;;;;;;2.50;1.63;;;12.50;99.90;;;;;;5053715;28;20179;-63
2022/09/21 07:19:08;;;;;;;2.10;1.65;;;12.60;99.90;;;;;;5053780;28;20723;-63
2022/09/21 07:21:34;;;;;;;2.38;1.98;;;12.70;99.90;;;;;;5053520;28;20186;-63
2022/09/21 07:24:00;;;;;;;2.95;1.80;;;12.80;99.90;;;;;;5053665;28;20175;-63
2022/09/21 07:26:26;;;;;;;2.92;1.80;;;12.80;99.90;;;;;;5053416;28;20637;-63
2022/09/21 07:28:52;;;;;;;2.42;2.13;;;12.80;99.90;;;;;;5053661;28;20214;-63
2022/09/21 07:31:17;;;;;;;1.80;1.67;;;13.00;99.90;;;;;;5053927;28;20179;-63
2022/09/21 07:33:47;;;;;;;2.78;2.08;;;13.10;99.90;;;;;;5053515;28;20181;-63
2022/09/21 07:36:13;;;;;;;2.85;2.40;;;13.30;99.90;;;;;;5053396;28;20179;-63
2022/09/21 07:38:42;;;;;;;2.90;1.73;;;13.40;99.90;;;;;;5053414;28;20698;-64
2022/09/21 07:41:09;;;;;;;2.92;1.67;;;13.40;99.90;;;;;;5052252;28;20233;-63
2022/09/21 07:43:38;;;;;;;3.08;2.03;;;13.60;99.90;;;;;;5052099;28;20203;-63
2022/09/21 07:46:04;;;;;;;3.15;2.30;;;13.70;99.90;;;;;;5052136;28;20640;-63
2022/09/21 07:48:29;;;;;;;4.00;2.35;;;13.80;99.90;;;;;;5053238;28;20652;-63
2022/09/21 07:51:04;;;;;;;5.85;2.38;;;13.90;99.90;;;;;;5035413;28;20187;-63
2022/09/21 07:53:31;;;;;;;2.20;2.00;;;13.80;99.90;;;;;;5053126;28;20183;-63
2022/09/21 07:56:05;;;;;;;2.83;1.98;;;13.90;99.90;;;;;;5052123;28;20186;-63
2022/09/21 08:01:16;;;;;;;2.55;1.90;;;14.10;99.90;;;;;;5052387;28;20233;-64
2022/09/21 08:03:42;;;;;;;2.67;2.45;;;14.40;99.90;;;;;;5053039;28;20655;-63
2022/09/21 08:06:08;;;;;;;3.10;2.28;;;14.40;99.90;;;;;;5053033;28;20645;-63
2022/09/21 08:08:34;;;;;;;3.35;2.15;;;14.50;99.90;;;;;;5053146;28;20253;-63
2022/09/21 08:11:04;;;;;;;3.22;2.47;;;14.50;99.90;;;;;;5053007;28;20650;-63
2022/09/21 08:13:30;;;;;;;4.85;2.55;;;14.60;99.90;;;;;;5051811;28;20171;-63
2022/09/21 08:16:00;;;;;;;3.65;2.45;;;14.60;99.90;;;;;;5052921;28;20198;-64
2022/09/21 08:18:27;;;;;;;3.35;1.95;;;14.80;99.90;;;;;;5052799;28;20171;-64
2022/09/21 08:20:57;;;;;;;2.67;2.13;;;14.90;99.90;;;;;;5052824;28;20175;-63
2022/09/21 08:23:23;;;;;;;2.75;1.90;;;15.00;99.90;;;;;;5053035;28;20183;-64
2022/09/21 08:25:49;;;;;;;2.78;2.03;;;15.10;99.90;;;;;;5052034;28;20583;-64
2022/09/21 08:28:15;;;;;;;1.52;1.42;;;15.10;99.90;;;;;;5035118;28;20172;-64
2022/09/21 08:30:41;;;;;;;1.77;1.67;;;15.00;99.90;;;;;;5052683;28;20222;-64
2022/09/21 08:33:07;;;;;;;2.13;1.70;;;15.20;99.90;;;;;;5051626;28;20167;-63
2022/09/21 08:35:34;;;;;;;2.65;1.67;;;15.30;99.90;;;;;;5052966;28;20177;-64
2022/09/21 08:38:00;;;;;;;3.45;1.80;;;15.50;99.90;;;;;;5051666;28;20581;-64
2022/09/21 08:40:25;;;;;;;2.20;1.65;;;15.50;99.90;;;;;;5053140;28;20217;-64
2022/09/21 08:43:11;;;;;;;2.00;1.80;;;15.60;99.90;;;;;;5051498;28;20183;-64
2022/09/21 08:45:40;;;;;;;2.45;1.90;;;15.90;99.90;;;;;;5053055;28;20179;-64
2022/09/21 08:48:27;;;;;;;3.30;1.75;;;16.00;99.90;;;;;;5052836;28;20167;-64
2022/09/21 08:51:00;;;;;;;3.75;1.80;;;15.90;99.90;;;;;;5052859;28;20187;-64
2022/09/21 08:53:57;;;;;;;2.00;1.83;;;16.10;99.90;;;;;;5052717;28;20655;-64
2022/09/21 08:56:25;;;;;;;3.28;2.03;;;16.10;99.90;;;;;;5048336;28;20187;-64
2022/09/21 08:58:51;;;;;;;2.17;1.60;;;16.20;99.90;;;;;;5051516;28;20183;-64
2022/09/21 09:01:20;;;;;;;2.75;1.60;;;16.30;99.90;;;;;;5051431;28;20237;-64
2022/09/21 09:03:56;;;;;;;2.22;1.55;;;16.40;99.90;;;;;;5054391;28;20664;-64
2022/09/21 09:06:43;;;;;;;1.98;1.42;;;16.00;99.90;;;;;;5056173;28;20171;-64
2022/09/21 09:09:17;;;;;;;2.97;1.67;;;16.20;99.90;;;;;;5056297;28;20206;-64
2022/09/21 09:11:51;;;;;;;2.53;1.20;;;16.20;99.90;;;;;;5056251;28;20540;-65
2022/09/21 09:14:20;;;;;;;1.50;1.33;;;16.10;99.90;;;;;;5055889;28;20214;-64
2022/09/21 09:16:59;;;;;;;2.25;1.40;;;16.40;99.90;;;;;;5056241;28;20213;-64
2022/09/21 09:19:52;;;;;;;1.98;1.20;;;16.40;99.90;;;;;;5056084;28;20446;-64
2022/09/21 09:22:33;;;;;;;1.65;1.00;;;16.60;99.90;;;;;;5055825;28;20191;-64
2022/09/21 09:25:04;;;;;;;2.00;1.15;;;16.60;99.90;;;;;;5054609;28;20175;-64
2022/09/21 09:27:41;;;;;;;2.20;1.33;;;16.80;99.90;;;;;;5055864;28;20171;-64
2022/09/21 09:30:18;;;;;;;2.88;1.40;;;17.00;99.90;;;;;;5055896;28;20738;-62
2022/09/21 09:32:48;;;;;;;2.55;0.90;;;17.10;99.90;;;;;;5055811;28;20175;-62
2022/09/21 09:35:35;;;;;;;1.23;1.05;;;17.10;99.90;;;;;;5054430;28;20171;-64
2022/09/21 09:38:18;;;;;;;1.58;1.10;;;17.50;99.90;;;;;;5055574;28;20179;-63
2022/09/21 09:41:30;;;;;;;1.40;1.23;;;17.60;99.90;;;;;;5055600;28;20175;-62
2022/09/21 09:44:15;;;;;;;1.00;0.75;;;17.60;99.90;;;;;;5055419;28;20199;-62
2022/09/21 09:47:33;;;;;;;0.70;0.70;;;17.50;99.90;;;;;;5055685;28;20171;-62
2022/09/21 09:50:08;;;;;;;1.42;0.60;;;17.60;99.90;;;;;;5033179;28;20223;-62
2022/09/21 09:52:34;;;;;;;0.95;0.80;;;17.60;99.90;;;;;;5051898;28;20179;-63
2022/09/21 09:55:14;;;;;;;2.28;0.90;;;17.80;99.90;;;;;;5055500;28;20677;-62
2022/09/21 09:57:40;;;;;;;0.75;0.50;;;17.70;99.90;;;;;;5054375;28;20187;-63
2022/09/21 10:00:11;;;;;;;1.45;0.82;;;17.90;99.90;;;;;;5055231;28;20278;-63
2022/09/21 10:02:53;;;;;;;1.73;0.80;;;17.60;99.90;;;;;;5055121;28;20175;-63
2022/09/21 10:05:31;;;;;;;0.77;0.60;;;17.70;99.90;;;;;;5055292;28;20167;-63
2022/09/21 10:07:58;;;;;;;0.75;0.60;;;17.80;99.90;;;;;;5055336;28;20259;-63
2022/09/21 10:10:32;;;;;;;0.90;0.70;;;18.10;99.90;;;;;;5053780;28;20257;-63
2022/09/21 10:13:15;;;;;;;1.13;0.50;;;18.20;99.90;;;;;;5053709;28;20691;-63
2022/09/21 10:16:03;;;;;;;1.83;1.00;;;18.20;99.90;;;;;;5054348;28;20221;-63
2022/09/21 10:19:00;;;;;;;1.20;0.80;;;18.40;99.90;;;;;;5054497;28;20245;-63
2022/09/21 10:21:38;;;;;;;0.75;0.70;;;18.40;99.90;;;;;;5050119;28;20648;-63
2022/09/21 10:24:13;;;;;;;0.60;0.40;;;18.50;99.90;;;;;;5054877;28;20167;-63
2022/09/21 10:26:53;;;;;;;1.63;0.55;;;18.60;99.90;;;;;;5054772;28;20540;-63
2022/09/21 10:29:22;;;;;;;0.77;0.47;;;18.60;99.90;;;;;;5054719;28;20203;-63
2022/09/21 10:32:02;;;;;;;1.05;0.65;;;18.70;99.90;;;;;;5054760;28;20508;-64
2022/09/21 10:34:33;;;;;;;4.07;0.77;;;18.90;99.90;;;;;;5054783;28;20647;-63
2022/09/21 10:37:01;;;;;;;1.55;0.40;;;18.90;99.90;;;;;;5054532;28;20167;-63
2022/09/21 10:39:29;;;;;;;0.57;0.47;;;18.60;99.90;;;;;;5054552;28;20621;-64
2022/09/21 10:42:02;;;;;;;0.55;0.55;;;18.50;99.90;;;;;;5054207;28;20532;-63
2022/09/21 10:44:43;;;;;;;1.58;0.40;;;18.60;99.90;;;;;;5054214;28;20575;-64
2022/09/21 10:47:36;;;;;;;0.98;0.60;;;18.70;99.90;;;;;;5054314;28;20629;-63
2022/09/21 10:50:06;;;;;;;1.65;0.75;;;18.60;99.90;;;;;;5051630;28;20223;-64
2022/09/21 10:52:39;;;;;;;2.10;0.85;;;18.20;99.90;;;;;;5054180;28;20175;-63
2022/09/21 10:55:07;;;;;;;1.95;0.50;;;18.00;99.90;;;;;;5054160;28;20225;-64
2022/09/21 10:57:33;;;;;;;0.50;0.50;;;17.70;99.90;;;;;;5053151;28;20283;-63
2022/09/21 11:00:33;;;;;;;0.38;0.38;;;17.80;99.90;;;;;;5054179;28;20175;-65
2022/09/21 11:03:03;;;;;;;0.70;0.70;;;17.90;99.90;;;;;;5052021;28;20577;-64
2022/09/21 11:05:33;;;;;;;1.40;0.85;;;17.80;98.70;;;;;;5054196;28;20649;-63
2022/09/21 11:08:26;;;;;;;0.55;0.50;;;17.70;99.20;;;;;;5054084;28;20167;-63
2022/09/21 11:11:24;;;;;;;3.00;0.80;;;17.80;99.90;;;;;;5053649;28;20191;-64
2022/09/21 11:13:59;;;;;;;1.15;0.70;;;18.00;99.60;;;;;;5054226;28;20168;-64
2022/09/21 11:16:36;;;;;;;0.55;0.55;;;18.10;99.20;;;;;;5053953;28;20179;-63
2022/09/21 11:19:15;;;;;;;0.68;0.60;;;18.20;99.90;;;;;;5053754;28;20216;-64
2022/09/21 11:21:56;;;;;;;0.60;0.50;;;18.30;99.10;;;;;;5053660;28;20536;-64
2022/09/21 11:24:35;;;;;;;0.52;0.35;;;18.30;98.50;;;;;;5053839;28;20262;-64
2022/09/21 11:27:37;;;;;;;1.85;0.35;;;18.60;99.40;;;;;;5052422;28;20181;-64
2022/09/21 11:30:11;;;;;;;1.23;0.30;;;18.50;97.90;;;;;;5053468;28;20242;-63
2022/09/21 11:33:10;;;;;;;0.35;0.28;;;18.60;96.80;;;;;;5053597;28;20167;-63
2022/09/21 11:36:17;;;;;;;0.50;0.50;;;18.90;97.70;;;;;;5053568;28;20517;-64
2022/09/21 11:39:01;;;;;;;0.25;0.25;;;18.90;96.50;;;;;;5031413;28;20180;-63
2022/09/21 11:41:48;;;;;;;0.20;0.20;;;18.70;95.70;;;;;;5052406;28;20273;-65
2022/09/21 11:44:55;;;;;;;0.10;0.10;;;18.90;96.80;;;;;;5053284;28;20686;-64
2022/09/21 11:47:51;;;;;;;0.20;0.20;;;19.10;97.00;;;;;;5031260;28;20188;-63
2022/09/21 11:50:36;;;;;;;1.50;0.22;;;18.90;95.90;;;;;;5053301;28;20265;-63
2022/09/21 11:53:02;;;;;;;0.20;0.20;;;18.70;96.50;;;;;;5053107;28;20590;-64
2022/09/21 11:55:51;;;;;;;0.20;0.20;;;18.70;97.20;;;;;;5053535;28;20175;-64
2022/09/21 11:58:28;;;;;;;0.03;0.03;;;18.70;96.10;;;;;;5042865;28;20268;-64
2022/09/21 12:01:26;;;;;;;0.30;0.28;;;18.60;96.60;;;;;;5053201;28;20207;-63
2022/09/21 12:04:15;;;;;;;0.75;0.10;;;18.60;97.80;;;;;;5048117;28;20183;-64
2022/09/21 12:07:05;;;;;;;0.55;0.30;;;18.60;96.70;;;;;;5053231;28;20195;-62
2022/09/21 12:09:46;;;;;;;2.35;0.30;;;18.70;96.70;;;;;;5052984;28;20237;-63
2022/09/21 12:12:21;;;;;;;0.22;0.20;;;18.90;97.20;;;;;;5053328;28;20159;-64
2022/09/21 12:15:21;;;;;;;3.55;0.63;;;18.90;95.40;;;;;;5053088;28;20183;-64
2022/09/21 12:18:01;;;;;;;0.52;0.20;;;18.90;95.10;;;;;;5053051;28;20258;-64
2022/09/21 12:20:49;;;;;;;0.20;0.20;;;19.20;95.60;;;;;;5051789;28;20201;-65
2022/09/21 12:23:26;;;;;;;0.20;0.20;;;19.20;95.40;;;;;;5051687;28;20179;-64
2022/09/21 12:25:57;;;;;;;0.47;0.30;;;19.30;95.80;;;;;;5053104;28;20171;-64
2022/09/21 12:28:49;;;;;;;0.20;0.20;;;19.60;95.80;;;;;;5052976;28;20164;-63
2022/09/21 12:31:28;;;;;;;0.85;0.20;;;19.60;96.40;;;;;;5053142;28;20273;-64
2022/09/21 12:34:02;;;;;;;1.48;0.15;;;19.80;95.20;;;;;;5052925;28;20659;-64
2022/09/21 12:36:36;;;;;;;0.52;0.20;;;20.00;95.20;;;;;;5052852;28;20163;-64
2022/09/21 12:39:27;;;;;;;0.20;0.20;;;19.60;95.20;;;;;;5055146;28;20643;-66
2022/09/21 12:42:01;;;;;;;0.20;0.20;;;19.70;94.40;;;;;;5056427;28;20198;-64
2022/09/21 12:44:51;;;;;;;0.25;0.20;;;19.50;93.30;;;;;;5056568;28;20179;-64
2022/09/21 12:47:42;;;;;;;0.38;0.10;;;19.70;94.50;;;;;;5056464;28;20258;-64
2022/09/21 12:50:19;;;;;;;0.40;0.35;;;19.80;93.90;;;;;;5046533;28;20356;-64
2022/09/21 12:52:46;;;;;;;0.50;0.20;;;19.70;94.30;;;;;;5056523;28;20167;-64
2022/09/21 12:55:33;;;;;;;0.35;0.30;;;19.60;92.30;;;;;;5055179;28;20176;-64
2022/09/21 12:58:40;;;;;;;0.17;0.17;;;19.30;93.20;;;;;;5056517;28;20192;-65
2022/09/21 13:01:12;;;;;;;0.35;0.20;;;19.50;93.80;;;;;;5038695;28;20532;-64
2022/09/21 13:03:57;;;;;;;1.02;0.47;;;19.70;94.20;;;;;;5056302;28;20190;-64
2022/09/21 13:06:46;;;;;;;0.15;0.15;;;19.50;93.10;;;;;;5056524;28;20262;-64
2022/09/21 13:09:16;;;;;;;0.20;0.20;;;19.50;93.90;;;;;;5056532;28;20588;-64
2022/09/21 13:12:01;;;;;;;0.10;0.10;;;19.50;93.70;;;;;;5056209;28;20202;-64
2022/09/21 13:14:35;;;;;;;0.63;0.20;;;19.50;94.70;;;;;;5055921;28;20187;-64
2022/09/21 13:17:03;;;;;;;1.55;0.40;;;19.50;95.90;;;;;;5056304;28;20203;-65
2022/09/21 13:19:34;;;;;;;0.38;0.10;;;19.50;95.30;;;;;;5054991;28;20242;-64
2022/09/21 13:22:18;;;;;;;1.17;0.17;;;19.60;95.70;;;;;;5055915;28;20592;-64
2022/09/21 13:25:00;;;;;;;0.22;0.20;;;19.50;95.50;;;;;;5055754;28;20221;-64